Bookmark and Share
Track history (hours):
 

Lowlands Queen

Last reported at 2014-Feb-28 07:30 UTC. Time now 2014-Apr-25 05:57 UTC.
Position N 38°31' W 076°25'.
Warning: this ship's position is 55 days out of date.

Length 225 m; draft 8.2 m.

Type: Cargo ship. MMSI: 370913000.

NotesDate/timePositionNaut miles runAvg speedWind from/ knotsBaromVisibWave heightAir tempDewpointWater temp
2014-Feb-28 07:30N 38°31' W 076°25'1212.7
2014-Feb-28 06:33N 38°43' W 076°26'1313.0
2014-Feb-28 05:33N 38°55' W 076°24'1010.0
2014-Feb-28 04:32N 39°06' W 076°24'7 7.5
2014-Feb-28 03:33N 39°12' W 076°29'4 4.3
2014-Feb-28 02:32N 39°13' W 076°34'0 0.2
2014-Feb-28 01:32N 39°13' W 076°35'0 0.0
2014-Feb-28 00:32N 39°13' W 076°35'0 0.0
2014-Feb-27 23:32N 39°13' W 076°35'0 0.0
2014-Feb-27 22:32N 39°13' W 076°35'0 0.0
2014-Feb-27 21:29N 39°13' W 076°35'0 0.0
2014-Feb-27 19:32N 39°13' W 076°35'0 0.0
2014-Feb-27 18:32N 39°13' W 076°35'0 0.0
2014-Feb-27 17:32N 39°13' W 076°35'0 0.0
2014-Feb-27 16:32N 39°13' W 076°35'0 0.0
2014-Feb-27 15:32N 39°13' W 076°35'0 0.0
2014-Feb-27 14:32N 39°13' W 076°35'0 0.0
2014-Feb-27 13:32N 39°13' W 076°35'0 0.0
2014-Feb-27 12:32N 39°13' W 076°35'0 0.0
2014-Feb-27 11:32N 39°13' W 076°35'0 0.0
2014-Feb-27 10:32N 39°13' W 076°35'0 0.0
2014-Feb-27 09:32N 39°13' W 076°35'0 0.0
2014-Feb-27 08:32N 39°13' W 076°35'0 0.0
2014-Feb-27 07:32N 39°13' W 076°35'0 0.0
2014-Feb-27 06:32N 39°13' W 076°35'0 0.0
2014-Feb-27 05:32N 39°13' W 076°35'0 0.0
2014-Feb-27 04:32N 39°13' W 076°35'0 0.0
2014-Feb-27 03:32N 39°13' W 076°35'0 0.0
2014-Feb-27 02:32N 39°13' W 076°35'0 0.0
2014-Feb-27 01:32N 39°13' W 076°35'0 0.0
2014-Feb-27 00:32N 39°13' W 076°35'0 0.0
2014-Feb-26 23:32N 39°13' W 076°35'0 0.0
2014-Feb-26 22:29N 39°13' W 076°35'0 0.0
2014-Feb-26 21:32N 39°13' W 076°35'0 0.0
2014-Feb-26 20:32N 39°13' W 076°35'0 0.0
2014-Feb-26 19:32N 39°13' W 076°35'0 0.0
2014-Feb-26 18:29N 39°13' W 076°35'0 0.0
2014-Feb-26 17:32N 39°13' W 076°35'0 0.0
2014-Feb-26 16:32N 39°13' W 076°35'0 0.0
2014-Feb-26 15:32N 39°13' W 076°35'0 0.0
2014-Feb-26 14:32N 39°13' W 076°35'0 0.0
2014-Feb-26 13:32N 39°13' W 076°35'0 0.0
2014-Feb-26 12:32N 39°13' W 076°35'0 0.0
2014-Feb-26 11:32N 39°13' W 076°35'0 0.0
2014-Feb-26 10:33N 39°13' W 076°35'0 0.0
2014-Feb-26 09:33N 39°13' W 076°35'1 1.0
2014-Feb-26 08:33N 39°13' W 076°33'8 8.2
2014-Feb-26 07:33N 39°09' W 076°25'1111.0
2014-Feb-26 06:33N 38°58' W 076°24'2 1.6
2014-Feb-26 05:31N 38°56' W 076°25'0 0.0
2014-Feb-26 04:31N 38°56' W 076°25'0 0.0
2014-Feb-26 03:31N 38°56' W 076°25'0 0.0
2014-Feb-26 02:31N 38°56' W 076°25'0 0.0
2014-Feb-26 01:31N 38°56' W 076°25'0 0.0
2014-Feb-26 00:31N 38°56' W 076°25'0 0.0
2014-Feb-25 23:31N 38°56' W 076°25'0 0.1
2014-Feb-25 22:31N 38°56' W 076°25'0 0.2
2014-Feb-25 21:31N 38°57' W 076°25'0 0.1
2014-Feb-25 20:31N 38°57' W 076°25'0 0.0
2014-Feb-25 19:31N 38°57' W 076°25'0 0.0
2014-Feb-25 18:31N 38°57' W 076°25'0 0.0
2014-Feb-25 17:31N 38°57' W 076°25'0 0.1
2014-Feb-25 16:31N 38°57' W 076°25'0 0.1
2014-Feb-25 15:31N 38°56' W 076°25'0 0.1
2014-Feb-25 14:31N 38°56' W 076°25'0 0.0
2014-Feb-25 13:28N 38°56' W 076°25'0 0.0
2014-Feb-25 12:31N 38°56' W 076°25'0 0.0
2014-Feb-25 11:31N 38°56' W 076°25'0 0.0
2014-Feb-25 10:31N 38°56' W 076°25'0 0.0
2014-Feb-25 09:31N 38°56' W 076°25'0 0.1
2014-Feb-25 08:31N 38°56' W 076°25'0 0.2
2014-Feb-25 07:31N 38°57' W 076°25'0 0.1
2014-Feb-25 06:31N 38°57' W 076°25'0 0.1
2014-Feb-25 05:31N 38°56' W 076°25'0 0.1
2014-Feb-25 04:31N 38°56' W 076°25'0 0.0
2014-Feb-25 03:31N 38°56' W 076°25'0 0.0
2014-Feb-25 02:31N 38°56' W 076°25'0 0.0
2014-Feb-25 01:31N 38°56' W 076°25'0 0.0
2014-Feb-25 00:31N 38°56' W 076°25'0 0.0
2014-Feb-24 23:31N 38°56' W 076°25'0 0.1
2014-Feb-24 22:31N 38°56' W 076°25'0 0.0
2014-Feb-24 21:31N 38°56' W 076°25'0 0.0
2014-Feb-24 20:31N 38°56' W 076°25'0 0.0
2014-Feb-24 19:31N 38°56' W 076°25'0 0.0
2014-Feb-24 18:31N 38°56' W 076°25'0 0.0
2014-Feb-24 17:28N 38°57' W 076°25'0 0.0
2014-Feb-24 16:28N 38°56' W 076°25'0 0.0
2014-Feb-24 15:31N 38°56' W 076°25'0 0.0
2014-Feb-24 14:31N 38°56' W 076°25'0 0.0
2014-Feb-24 13:31N 38°56' W 076°25'0 0.0
2014-Feb-24 12:31N 38°56' W 076°25'0 0.1
2014-Feb-24 11:31N 38°56' W 076°25'0 0.0
2014-Feb-24 10:31N 38°56' W 076°25'0 0.0
2014-Feb-24 09:31N 38°56' W 076°25'0 0.0
2014-Feb-24 08:31N 38°56' W 076°25'0 0.0
2014-Feb-24 07:31N 38°56' W 076°25'0 0.1
2014-Feb-24 06:31N 38°56' W 076°25'0 0.0
2014-Feb-24 05:31N 38°56' W 076°25'0 0.0
2014-Feb-24 04:31N 38°56' W 076°25'0 0.0
2014-Feb-24 03:31N 38°56' W 076°25'0 0.1
2014-Feb-24 02:31N 38°56' W 076°25'0 0.0
2014-Feb-24 01:31N 38°56' W 076°25'0 0.0
2014-Feb-24 00:31N 38°56' W 076°25'0 0.0
2014-Feb-23 23:31N 38°56' W 076°25'0 0.0
2014-Feb-23 22:31N 38°56' W 076°25'0 0.0
2014-Feb-23 21:31N 38°56' W 076°25'0 0.0
2014-Feb-23 20:31N 38°56' W 076°25'0 0.1
2014-Feb-23 19:31N 38°56' W 076°25'0 0.2
2014-Feb-23 18:31N 38°57' W 076°25'0 0.0
2014-Feb-23 17:31N 38°57' W 076°25'0 0.0
2014-Feb-23 16:31N 38°57' W 076°25'0 0.0
2014-Feb-23 15:31N 38°57' W 076°25'0 0.0
2014-Feb-23 14:31N 38°57' W 076°25'0 0.0
2014-Feb-23 13:31N 38°57' W 076°25'0 0.0
2014-Feb-23 12:31N 38°57' W 076°25'0 0.0
2014-Feb-23 11:31N 38°57' W 076°25'0 0.0
2014-Feb-23 10:31N 38°57' W 076°25'0 0.2
2014-Feb-23 09:31N 38°56' W 076°25'0 0.1
2014-Feb-23 08:31N 38°57' W 076°25'0 0.1
2014-Feb-23 07:31N 38°57' W 076°25'0 0.0
2014-Feb-23 06:31N 38°57' W 076°25'0 0.0
2014-Feb-23 05:31N 38°57' W 076°25'0 0.0
2014-Feb-23 04:31N 38°57' W 076°25'0 0.0
2014-Feb-23 03:31N 38°57' W 076°25'0 0.0
2014-Feb-23 02:31N 38°57' W 076°25'0 0.0
2014-Feb-23 01:31N 38°57' W 076°25'0 0.0
2014-Feb-23 00:31N 38°57' W 076°25'0 0.1
2014-Feb-22 23:31N 38°57' W 076°25'0 0.0
2014-Feb-22 22:31N 38°57' W 076°25'0 0.0
2014-Feb-22 21:31N 38°57' W 076°25'0 0.0
2014-Feb-22 20:31N 38°57' W 076°25'0 0.0
2014-Feb-22 14:31N 38°57' W 076°25'0 0.0
2014-Feb-22 13:31N 38°57' W 076°25'0 0.1
2014-Feb-22 12:31N 38°56' W 076°25'0 0.1
2014-Feb-22 11:31N 38°56' W 076°25'0 0.0
2014-Feb-22 10:31N 38°56' W 076°25'0 0.0
2014-Feb-22 09:34N 38°56' W 076°25'0 0.0
2014-Feb-22 08:31N 38°56' W 076°25'0 0.0
2014-Feb-22 07:31N 38°56' W 076°25'0 0.0
2014-Feb-22 06:31N 38°56' W 076°25'0 0.1
2014-Feb-22 05:31N 38°56' W 076°25'0 0.2
2014-Feb-22 04:31N 38°57' W 076°25'0 0.0
2014-Feb-22 03:31N 38°57' W 076°25'0 0.1
2014-Feb-22 02:31N 38°57' W 076°25'0 0.2
2014-Feb-22 01:31N 38°56' W 076°25'0 0.1
2014-Feb-22 00:34N 38°56' W 076°25'0 0.0
2014-Feb-21 23:33N 38°56' W 076°25'10 9.8
2014-Feb-21 22:33N 38°47' W 076°26'1414.4
2014-Feb-21 21:33N 38°32' W 076°25'1515.0
2014-Feb-21 20:33N 38°18' W 076°18'  

Dump ship's entire track history

sailing weather and tide predictions

Lowlands Queen — 3FTU4 — position and weather